Salamanca, Spain

4:31 PM CEST on October 22, 2014 (GMT +0200)
Matacan | Change Station
CLOSE
Current Station
Airport
Location: Salamanca,
Elevation: 2605 ft
Nearby Weather Stations

Elev 2605 ft 40.96 °N, 5.50 °W | Updated 31 minutes ago

Clear
Clear
72 °F
Feels Like 72 °F
N
4
Wind Variable Wind from East

Today
High -- | Low -- °F
--% Chance of Precip.
Yesterday
High -- | Low -- °F
Precip. -- in
8:40 AM 7:31 PM
Waning Crescent, 2% visible
Pressure 30.39 in
Visibility -9999.0 miles
Clouds
Dew Point 41 °F
Humidity 33%
Rainfall 0.00 in
Snow Depth Not available.
UV Not available.
Pollen Not available.
Air Quality Not available.
Flu Activity Not available.
METAR LESA 221400Z 10003KT 040V150 CAVOK 22/05 Q1029

More Conditions Fewer Conditions

Pressure 30.39 in
Visibility -9999.0 miles
Clouds
Dew Point 41 °F
Humidity 33%
Rainfall 0.00 in
Snow Depth Not available.
UV Not available.
Pollen Not available.
Air Quality Not available.
Flu Activity Not available.
METAR LESA 221400Z 10003KT 040V150 CAVOK 22/05 Q1029

More Conditions Fewer Conditions

10-Day Weather Forecast

Almanac

Astronomy

Oct. 22, 2014 Rise Set
Actual Time 8:40 AM CEST 7:31 PM CEST
Civil Twilight 8:12 AM CEST 7:59 PM CEST
Nautical Twilight 7:40 AM CEST 8:31 PM CEST
Astronomical Twilight 7:09 AM CEST 9:03 PM CEST
Moon 7:08 AM CEST 6:50 PM CEST
Length of Visible Light 11h 46m
Length of Day
10h 50m
Tomorrow will be 2m 33s shorter.
Waning Crescent, 2% of the Moon is Illuminated
Today
Waning Crescent
Oct 23
New
Oct 30
First Quarter
Nov 6
Full
Nov 14
Last Quarter

Today's Extremes

Country Highs Country Lows

Community

WunderPhotos

Upload Photos

1,763,935 photos uploaded!

WunderBlogs® & News

Nearby

Snow Depth

Not available.

Earthquake Activity

City Distance Mag. Time & Date
No recent earthquake activity has been reported nearby.
Minimum magnitude displayed is 2.5.

Coastal Water Temperatures

Place Temperature
No Stations Reporting

Nearby Weather Stations